sensor_id;sensor_type;location;lat;lon;timestamp;pressure;altitude;pressure_sealevel;temperature;humidity
57990;BME280;58373;51.824;5.564;2023-05-24T00:00:38;102400.25;;;8.81;76.40
57990;BME280;58373;51.824;5.564;2023-05-24T00:03:04;102402.09;;;8.79;76.20
57990;BME280;58373;51.824;5.564;2023-05-24T00:05:30;102403.75;;;8.80;76.65
57990;BME280;58373;51.824;5.564;2023-05-24T00:07:56;102400.41;;;8.78;76.82
57990;BME280;58373;51.824;5.564;2023-05-24T00:10:21;102397.84;;;8.78;76.70
57990;BME280;58373;51.824;5.564;2023-05-24T00:12:46;102391.88;;;8.76;77.22
57990;BME280;58373;51.824;5.564;2023-05-24T00:15:11;102396.91;;;8.79;77.04
57990;BME280;58373;51.824;5.564;2023-05-24T00:17:37;102390.94;;;8.77;77.16
57990;BME280;58373;51.824;5.564;2023-05-24T00:20:06;102381.53;;;8.76;77.21
57990;BME280;58373;51.824;5.564;2023-05-24T00:22:31;102381.53;;;8.76;77.43
57990;BME280;58373;51.824;5.564;2023-05-24T00:24:57;102383.38;;;8.74;76.89
57990;BME280;58373;51.824;5.564;2023-05-24T00:27:22;102378.31;;;8.71;77.43
57990;BME280;58373;51.824;5.564;2023-05-24T00:29:47;102372.25;;;8.72;77.69
57990;BME280;58373;51.824;5.564;2023-05-24T00:32:12;102373.16;;;8.71;77.63
57990;BME280;58373;51.824;5.564;2023-05-24T00:34:38;102372.31;;;8.70;77.81
57990;BME280;58373;51.824;5.564;2023-05-24T00:37:03;102380.16;;;8.69;77.79
57990;BME280;58373;51.824;5.564;2023-05-24T00:39:28;102368.28;;;8.65;78.10
57990;BME280;58373;51.824;5.564;2023-05-24T00:41:53;102377.13;;;8.61;78.31
57990;BME280;58373;51.824;5.564;2023-05-24T00:44:19;102380.75;;;8.57;78.65
57990;BME280;58373;51.824;5.564;2023-05-24T00:46:44;102374.06;;;8.52;78.62
57990;BME280;58373;51.824;5.564;2023-05-24T00:49:09;102368.03;;;8.52;78.49
57990;BME280;58373;51.824;5.564;2023-05-24T00:51:34;102360.38;;;8.50;79.01
57990;BME280;58373;51.824;5.564;2023-05-24T00:54:01;102365.66;;;8.47;79.05
57990;BME280;58373;51.824;5.564;2023-05-24T00:56:26;102364.16;;;8.43;79.00
57990;BME280;58373;51.824;5.564;2023-05-24T00:58:51;102365.97;;;8.41;79.38
57990;BME280;58373;51.824;5.564;2023-05-24T01:01:20;102359.00;;;8.43;79.09
57990;BME280;58373;51.824;5.564;2023-05-24T01:03:49;102358.22;;;8.41;79.72
57990;BME280;58373;51.824;5.564;2023-05-24T01:06:15;102362.75;;;8.36;79.30
57990;BME280;58373;51.824;5.564;2023-05-24T01:08:42;102354.22;;;8.34;79.33
57990;BME280;58373;51.824;5.564;2023-05-24T01:14:24;102350.88;;;8.32;79.76
57990;BME280;58373;51.824;5.564;2023-05-24T01:16:22;102343.03;;;8.34;79.30
57990;BME280;58373;51.824;5.564;2023-05-24T01:18:53;102344.88;;;8.32;80.19
57990;BME280;58373;51.824;5.564;2023-05-24T01:26:27;102349.34;;;8.28;80.37
57990;BME280;58373;51.824;5.564;2023-05-24T01:28:55;102339.13;;;8.25;80.28
57990;BME280;58373;51.824;5.564;2023-05-24T01:31:21;102344.47;;;8.22;80.08
57990;BME280;58373;51.824;5.564;2023-05-24T01:33:46;102341.97;;;8.20;80.23
57990;BME280;58373;51.824;5.564;2023-05-24T01:36:12;102346.44;;;8.17;80.71
57990;BME280;58373;51.824;5.564;2023-05-24T01:38:37;102351.59;;;8.17;80.83
57990;BME280;58373;51.824;5.564;2023-05-24T01:41:14;102343.09;;;8.15;80.76
57990;BME280;58373;51.824;5.564;2023-05-24T01:43:47;102345.66;;;8.15;80.84
57990;BME280;58373;51.824;5.564;2023-05-24T01:48:53;102347.47;;;8.13;81.42
57990;BME280;58373;51.824;5.564;2023-05-24T01:51:22;102346.72;;;8.11;81.55
57990;BME280;58373;51.824;5.564;2023-05-24T01:53:48;102350.25;;;8.08;80.83
57990;BME280;58373;51.824;5.564;2023-05-24T01:56:14;102353.00;;;8.05;81.08
57990;BME280;58373;51.824;5.564;2023-05-24T01:58:41;102355.66;;;8.04;81.49
57990;BME280;58373;51.824;5.564;2023-05-24T02:01:08;102354.13;;;7.99;81.75
57990;BME280;58373;51.824;5.564;2023-05-24T02:03:33;102354.06;;;8.01;81.49
57990;BME280;58373;51.824;5.564;2023-05-24T02:05:58;102359.13;;;8.03;82.03
57990;BME280;58373;51.824;5.564;2023-05-24T02:08:23;102364.31;;;8.03;81.95
57990;BME280;58373;51.824;5.564;2023-05-24T02:10:48;102355.03;;;7.98;82.03
57990;BME280;58373;51.824;5.564;2023-05-24T02:13:14;102359.41;;;7.96;82.10
57990;BME280;58373;51.824;5.564;2023-05-24T02:15:42;102361.13;;;7.97;82.92
57990;BME280;58373;51.824;5.564;2023-05-24T02:18:08;102363.72;;;7.97;83.30
57990;BME280;58373;51.824;5.564;2023-05-24T02:20:35;102367.16;;;7.96;82.90
57990;BME280;58373;51.824;5.564;2023-05-24T02:23:01;102366.34;;;7.96;82.49
57990;BME280;58373;51.824;5.564;2023-05-24T02:25:26;102356.09;;;7.94;83.69
57990;BME280;58373;51.824;5.564;2023-05-24T02:27:51;102363.06;;;7.92;83.33
57990;BME280;58373;51.824;5.564;2023-05-24T02:30:17;102358.88;;;7.90;84.86
57990;BME280;58373;51.824;5.564;2023-05-24T02:32:42;102358.03;;;7.89;83.50
57990;BME280;58373;51.824;5.564;2023-05-24T02:35:07;102351.19;;;7.88;84.27
57990;BME280;58373;51.824;5.564;2023-05-24T02:37:32;102356.38;;;7.88;83.91
57990;BME280;58373;51.824;5.564;2023-05-24T02:39:57;102366.69;;;7.88;84.89
57990;BME280;58373;51.824;5.564;2023-05-24T02:42:23;102364.13;;;7.88;83.80
57990;BME280;58373;51.824;5.564;2023-05-24T02:44:48;102366.69;;;7.88;83.99
57990;BME280;58373;51.824;5.564;2023-05-24T02:47:16;102365.78;;;7.89;84.35
57990;BME280;58373;51.824;5.564;2023-05-24T02:49:41;102368.38;;;7.89;84.57
57990;BME280;58373;51.824;5.564;2023-05-24T02:52:06;102355.53;;;7.88;83.83
57990;BME280;58373;51.824;5.564;2023-05-24T02:54:32;102356.38;;;7.88;84.66
57990;BME280;58373;51.824;5.564;2023-05-24T02:56:57;102349.38;;;7.90;84.30
57990;BME280;58373;51.824;5.564;2023-05-24T02:59:22;102354.53;;;7.90;84.56
57990;BME280;58373;51.824;5.564;2023-05-24T03:01:47;102356.38;;;7.88;85.63
57990;BME280;58373;51.824;5.564;2023-05-24T03:04:13;102355.59;;;7.86;84.35
57990;BME280;58373;51.824;5.564;2023-05-24T03:06:38;102358.19;;;7.86;84.68
57990;BME280;58373;51.824;5.564;2023-05-24T03:09:03;102356.38;;;7.88;84.58
57990;BME280;58373;51.824;5.564;2023-05-24T03:11:29;102362.25;;;7.92;84.95
57990;BME280;58373;51.824;5.564;2023-05-24T03:13:54;102352.88;;;7.89;84.62
57990;BME280;58373;51.824;5.564;2023-05-24T03:16:19;102363.34;;;7.86;84.59
57990;BME280;58373;51.824;5.564;2023-05-24T03:18:45;102351.47;;;7.82;84.71
57990;BME280;58373;51.824;5.564;2023-05-24T03:21:10;102354.97;;;7.81;84.41
57990;BME280;58373;51.824;5.564;2023-05-24T03:23:35;102344.66;;;7.81;84.79
57990;BME280;58373;51.824;5.564;2023-05-24T03:26:00;102349.84;;;7.80;84.89
57990;BME280;58373;51.824;5.564;2023-05-24T03:28:25;102349.94;;;7.78;84.87
57990;BME280;58373;51.824;5.564;2023-05-24T03:30:51;102338.00;;;7.76;85.60
57990;BME280;58373;51.824;5.564;2023-05-24T03:33:16;102346.72;;;7.73;85.50
57990;BME280;58373;51.824;5.564;2023-05-24T03:35:42;102342.38;;;7.73;85.14
57990;BME280;58373;51.824;5.564;2023-05-24T03:38:07;102339.88;;;7.72;84.95
57990;BME280;58373;51.824;5.564;2023-05-24T03:40:32;102346.72;;;7.73;85.08
57990;BME280;58373;51.824;5.564;2023-05-24T03:42:58;102343.38;;;7.71;86.08
57990;BME280;58373;51.824;5.564;2023-05-24T03:45:24;102343.47;;;7.69;85.36
57990;BME280;58373;51.824;5.564;2023-05-24T03:47:49;102340.03;;;7.69;86.11
57990;BME280;58373;51.824;5.564;2023-05-24T03:50:15;102332.41;;;7.66;86.14
57990;BME280;58373;51.824;5.564;2023-05-24T03:52:41;102336.66;;;7.67;85.81
57990;BME280;58373;51.824;5.564;2023-05-24T03:55:06;102336.66;;;7.67;86.36
57990;BME280;58373;51.824;5.564;2023-05-24T03:57:31;102329.72;;;7.69;85.53
57990;BME280;58373;51.824;5.564;2023-05-24T03:59:57;102320.34;;;7.66;85.98
57990;BME280;58373;51.824;5.564;2023-05-24T04:02:24;102317.69;;;7.68;86.24
57990;BME280;58373;51.824;5.564;2023-05-24T04:04:49;102323.91;;;7.64;86.59
57990;BME280;58373;51.824;5.564;2023-05-24T04:07:14;102328.28;;;7.62;86.63
57990;BME280;58373;51.824;5.564;2023-05-24T04:09:40;102331.03;;;7.59;89.45
57990;BME280;58373;51.824;5.564;2023-05-24T04:12:05;102326.78;;;7.58;89.05
57990;BME280;58373;51.824;5.564;2023-05-24T04:14:30;102326.78;;;7.58;89.27
57990;BME280;58373;51.824;5.564;2023-05-24T04:16:56;102329.47;;;7.55;88.98
57990;BME280;58373;51.824;5.564;2023-05-24T04:19:22;102329.56;;;7.53;87.51
57990;BME280;58373;51.824;5.564;2023-05-24T04:21:48;102339.03;;;7.53;88.31
57990;BME280;58373;51.824;5.564;2023-05-24T04:24:13;102332.97;;;7.54;88.73
57990;BME280;58373;51.824;5.564;2023-05-24T04:26:38;102337.38;;;7.52;89.27
57990;BME280;58373;51.824;5.564;2023-05-24T04:29:04;102334.72;;;7.53;90.41
57990;BME280;58373;51.824;5.564;2023-05-24T04:31:29;102336.47;;;7.53;91.09
57990;BME280;58373;51.824;5.564;2023-05-24T04:33:57;102330.41;;;7.54;91.55
57990;BME280;58373;51.824;5.564;2023-05-24T04:36:23;102327.72;;;7.55;92.51
57990;BME280;58373;51.824;5.564;2023-05-24T04:38:49;102330.25;;;7.57;91.42
57990;BME280;58373;51.824;5.564;2023-05-24T04:41:17;102331.94;;;7.58;92.39
57990;BME280;58373;51.824;5.564;2023-05-24T04:43:43;102334.38;;;7.61;93.85
57990;BME280;58373;51.824;5.564;2023-05-24T04:46:08;102338.63;;;7.62;93.51
57990;BME280;58373;51.824;5.564;2023-05-24T04:48:34;102334.16;;;7.65;93.77
57990;BME280;58373;51.824;5.564;2023-05-24T04:50:59;102343.50;;;7.68;93.37
57990;BME280;58373;51.824;5.564;2023-05-24T04:53:24;102338.22;;;7.71;94.06
57990;BME280;58373;51.824;5.564;2023-05-24T04:55:49;102343.38;;;7.71;94.82
57990;BME280;58373;51.824;5.564;2023-05-24T04:58:15;102348.38;;;7.74;93.98
57990;BME280;58373;51.824;5.564;2023-05-24T05:00:41;102349.94;;;7.78;93.55
57990;BME280;58373;51.824;5.564;2023-05-24T05:03:06;102353.31;;;7.80;95.02
57990;BME280;58373;51.824;5.564;2023-05-24T05:05:32;102358.31;;;7.83;93.93
57990;BME280;58373;51.824;5.564;2023-05-24T05:07:57;102349.53;;;7.87;94.42
57990;BME280;58373;51.824;5.564;2023-05-24T05:10:22;102352.88;;;7.89;94.73
57990;BME280;58373;51.824;5.564;2023-05-24T05:12:48;102345.00;;;7.92;94.48
57990;BME280;58373;51.824;5.564;2023-05-24T05:15:13;102361.13;;;7.97;94.30
57990;BME280;58373;51.824;5.564;2023-05-24T05:17:38;102349.72;;;8.02;94.68
57990;BME280;58373;51.824;5.564;2023-05-24T05:20:04;102345.34;;;8.04;95.09
57990;BME280;58373;51.824;5.564;2023-05-24T05:22:29;102351.88;;;8.11;94.20
57990;BME280;58373;51.824;5.564;2023-05-24T05:24:55;102352.50;;;8.16;94.78
57990;BME280;58373;51.824;5.564;2023-05-24T05:27:20;102353.25;;;8.18;95.96
57990;BME280;58373;51.824;5.564;2023-05-24T05:29:45;102358.16;;;8.24;95.77
57990;BME280;58373;51.824;5.564;2023-05-24T05:32:10;102353.59;;;8.29;94.81
57990;BME280;58373;51.824;5.564;2023-05-24T05:34:36;102357.59;;;8.36;96.38
57990;BME280;58373;51.824;5.564;2023-05-24T05:37:01;102352.13;;;8.42;95.12
57990;BME280;58373;51.824;5.564;2023-05-24T05:39:26;102358.69;;;8.49;93.77
57990;BME280;58373;51.824;5.564;2023-05-24T05:41:51;102346.38;;;8.55;93.89
57990;BME280;58373;51.824;5.564;2023-05-24T05:44:17;102352.94;;;8.62;95.10
57990;BME280;58373;51.824;5.564;2023-05-24T05:46:42;102357.78;;;8.68;94.93
57990;BME280;58373;51.824;5.564;2023-05-24T05:49:10;102365.16;;;8.75;95.50
57990;BME280;58373;51.824;5.564;2023-05-24T05:51:35;102374.38;;;8.81;94.70
57990;BME280;58373;51.824;5.564;2023-05-24T05:54:02;102363.59;;;8.90;94.70
57990;BME280;58373;51.824;5.564;2023-05-24T05:56:27;102374.38;;;8.98;94.46
57990;BME280;58373;51.824;5.564;2023-05-24T05:58:53;102363.66;;;9.06;94.28
57990;BME280;58373;51.824;5.564;2023-05-24T06:01:18;102356.34;;;9.14;93.45
57990;BME280;58373;51.824;5.564;2023-05-24T06:03:43;102358.69;;;9.19;94.32
57990;BME280;58373;51.824;5.564;2023-05-24T06:06:08;102360.78;;;9.28;93.45
57990;BME280;58373;51.824;5.564;2023-05-24T06:08:34;102361.25;;;9.36;94.07
57990;BME280;58373;51.824;5.564;2023-05-24T06:10:59;102364.25;;;9.44;94.12
57990;BME280;58373;51.824;5.564;2023-05-24T06:13:25;102367.31;;;9.52;93.77
57990;BME280;58373;51.824;5.564;2023-05-24T06:15:52;102363.47;;;9.60;92.92
57990;BME280;58373;51.824;5.564;2023-05-24T06:18:17;102366.47;;;9.68;93.05
57990;BME280;58373;51.824;5.564;2023-05-24T06:20:42;102368.50;;;9.78;92.06
57990;BME280;58373;51.824;5.564;2023-05-24T06:23:08;102365.66;;;9.83;91.55
57990;BME280;58373;51.824;5.564;2023-05-24T06:25:33;102374.03;;;9.88;90.78
57990;BME280;58373;51.824;5.564;2023-05-24T06:27:59;102378.13;;;9.92;89.83
57990;BME280;58373;51.824;5.564;2023-05-24T06:30:24;102375.38;;;9.95;90.45
57990;BME280;58373;51.824;5.564;2023-05-24T06:32:50;102373.19;;;10.03;90.56
57990;BME280;58373;51.824;5.564;2023-05-24T06:35:15;102383.25;;;10.09;90.06
57990;BME280;58373;51.824;5.564;2023-05-24T06:37:40;102386.25;;;10.18;89.33
57990;BME280;58373;51.824;5.564;2023-05-24T06:40:06;102386.09;;;10.21;88.03
57990;BME280;58373;51.824;5.564;2023-05-24T06:42:33;102391.84;;;10.26;88.26
57990;BME280;58373;51.824;5.564;2023-05-24T06:44:59;102390.63;;;10.33;88.72
57990;BME280;58373;51.824;5.564;2023-05-24T06:47:24;102379.72;;;10.42;86.59
57990;BME280;58373;51.824;5.564;2023-05-24T06:49:49;102394.19;;;10.46;85.04
57990;BME280;58373;51.824;5.564;2023-05-24T06:52:14;102384.75;;;10.45;85.23
57990;BME280;58373;51.824;5.564;2023-05-24T06:54:40;102384.41;;;10.51;85.82
57990;BME280;58373;51.824;5.564;2023-05-24T06:57:05;102394.59;;;10.54;85.41
57990;BME280;58373;51.824;5.564;2023-05-24T06:59:30;102396.69;;;10.63;85.14
57990;BME280;58373;51.824;5.564;2023-05-24T07:01:55;102396.59;;;10.65;83.10
57990;BME280;58373;51.824;5.564;2023-05-24T07:04:22;102390.22;;;10.71;83.58
57990;BME280;58373;51.824;5.564;2023-05-24T07:06:48;102384.50;;;10.80;83.45
57990;BME280;58373;51.824;5.564;2023-05-24T07:09:13;102390.63;;;10.79;84.01
57990;BME280;58373;51.824;5.564;2023-05-24T07:11:39;102394.34;;;10.89;83.66
57990;BME280;58373;51.824;5.564;2023-05-24T07:14:04;102395.09;;;10.91;84.09
57990;BME280;58373;51.824;5.564;2023-05-24T07:16:30;102407.16;;;11.06;83.12
57990;BME280;58373;51.824;5.564;2023-05-24T07:18:55;102402.75;;;11.08;81.61
57990;BME280;58373;51.824;5.564;2023-05-24T07:21:22;102408.09;;;11.05;81.79
57990;BME280;58373;51.824;5.564;2023-05-24T07:23:48;102410.69;;;11.05;81.68
57990;BME280;58373;51.824;5.564;2023-05-24T07:26:13;102399.31;;;11.08;82.36
57990;BME280;58373;51.824;5.564;2023-05-24T07:28:38;102401.81;;;11.09;81.67
57990;BME280;58373;51.824;5.564;2023-05-24T07:31:04;102403.47;;;11.10;82.24
57990;BME280;58373;51.824;5.564;2023-05-24T07:33:29;102402.38;;;11.14;82.49
57990;BME280;58373;51.824;5.564;2023-05-24T07:35:55;102397.66;;;11.21;81.86
57990;BME280;58373;51.824;5.564;2023-05-24T07:38:20;102405.28;;;11.24;81.67
57990;BME280;58373;51.824;5.564;2023-05-24T07:40:45;102409.44;;;11.27;81.25
57990;BME280;58373;51.824;5.564;2023-05-24T07:43:11;102404.72;;;11.33;81.74
57990;BME280;58373;51.824;5.564;2023-05-24T07:45:36;102403.63;;;11.37;80.65
57990;BME280;58373;51.824;5.564;2023-05-24T07:48:01;102407.06;;;11.38;79.81
57990;BME280;58373;51.824;5.564;2023-05-24T07:50:26;102405.19;;;11.40;80.22
57990;BME280;58373;51.824;5.564;2023-05-24T07:52:53;102404.38;;;11.54;82.07
57990;BME280;58373;51.824;5.564;2023-05-24T07:55:19;102410.38;;;11.68;79.46
57990;BME280;58373;51.824;5.564;2023-05-24T07:57:44;102401.09;;;11.79;81.02
57990;BME280;58373;51.824;5.564;2023-05-24T08:00:09;102404.84;;;11.89;79.78
57990;BME280;58373;51.824;5.564;2023-05-24T08:02:38;102401.13;;;11.93;79.62
57990;BME280;58373;51.824;5.564;2023-05-24T08:05:04;102404.47;;;11.95;78.47
57990;BME280;58373;51.824;5.564;2023-05-24T08:07:29;102403.34;;;11.99;78.50
57990;BME280;58373;51.824;5.564;2023-05-24T08:09:54;102406.03;;;11.98;77.96
57990;BME280;58373;51.824;5.564;2023-05-24T08:12:19;102411.88;;;12.01;78.07
57990;BME280;58373;51.824;5.564;2023-05-24T08:14:44;102397.75;;;12.05;74.80
57990;BME280;58373;51.824;5.564;2023-05-24T08:17:10;102396.16;;;12.17;76.60
57990;BME280;58373;51.824;5.564;2023-05-24T08:19:35;102393.06;;;12.25;75.44
57990;BME280;58373;51.824;5.564;2023-05-24T08:22:01;102395.81;;;12.36;76.72
57990;BME280;58373;51.824;5.564;2023-05-24T08:24:29;102389.81;;;12.48;76.14
57990;BME280;58373;51.824;5.564;2023-05-24T08:26:55;102404.19;;;12.54;76.03
57990;BME280;58373;51.824;5.564;2023-05-24T08:29:20;102391.28;;;12.52;74.80
57990;BME280;58373;51.824;5.564;2023-05-24T08:31:46;102392.78;;;12.56;75.63
57990;BME280;58373;51.824;5.564;2023-05-24T08:34:11;102392.44;;;12.61;74.13
57990;BME280;58373;51.824;5.564;2023-05-24T08:36:37;102389.97;;;12.59;73.48
57990;BME280;58373;51.824;5.564;2023-05-24T08:39:03;102384.63;;;12.61;74.23
57990;BME280;58373;51.824;5.564;2023-05-24T08:41:29;102385.88;;;12.55;73.30
57990;BME280;58373;51.824;5.564;2023-05-24T08:43:56;102384.63;;;12.61;72.72
57990;BME280;58373;51.824;5.564;2023-05-24T08:46:24;102376.97;;;12.72;73.40
57990;BME280;58373;51.824;5.564;2023-05-24T08:48:49;102385.00;;;12.82;71.48
57990;BME280;58373;51.824;5.564;2023-05-24T08:51:16;102379.09;;;12.92;69.44
57990;BME280;58373;51.824;5.564;2023-05-24T08:53:44;102372.94;;;13.06;71.26
57990;BME280;58373;51.824;5.564;2023-05-24T08:56:15;102372.66;;;13.23;70.11
57990;BME280;58373;51.824;5.564;2023-05-24T08:58:41;102378.00;;;13.22;63.44
57990;BME280;58373;51.824;5.564;2023-05-24T09:01:07;102371.66;;;13.26;68.33
57990;BME280;58373;51.824;5.564;2023-05-24T09:03:32;102380.59;;;13.35;68.08
57990;BME280;58373;51.824;5.564;2023-05-24T09:06:00;102373.28;;;13.40;69.88
57990;BME280;58373;51.824;5.564;2023-05-24T09:08:26;102366.28;;;13.53;68.21
57990;BME280;58373;51.824;5.564;2023-05-24T09:10:52;102364.50;;;13.66;67.42
57990;BME280;58373;51.824;5.564;2023-05-24T09:13:19;102374.06;;;13.78;69.28
57990;BME280;58373;51.824;5.564;2023-05-24T09:15:44;102371.53;;;13.90;67.40
57990;BME280;58373;51.824;5.564;2023-05-24T09:18:10;102371.50;;;14.02;68.57
57990;BME280;58373;51.824;5.564;2023-05-24T09:20:35;102369.34;;;14.20;69.27
57990;BME280;58373;51.824;5.564;2023-05-24T09:23:00;102364.41;;;14.28;65.99
57990;BME280;58373;51.824;5.564;2023-05-24T09:25:27;102372.94;;;14.30;67.23
57990;BME280;58373;51.824;5.564;2023-05-24T09:27:54;102374.50;;;14.33;66.36
57990;BME280;58373;51.824;5.564;2023-05-24T09:30:20;102379.56;;;14.23;65.77
57990;BME280;58373;51.824;5.564;2023-05-24T09:32:56;102367.56;;;14.21;65.76
57990;BME280;58373;51.824;5.564;2023-05-24T09:35:21;102364.56;;;14.14;65.43
57990;BME280;58373;51.824;5.564;2023-05-24T09:37:46;102366.66;;;14.09;65.45
57990;BME280;58373;51.824;5.564;2023-05-24T09:40:18;102375.44;;;14.08;65.98
57990;BME280;58373;51.824;5.564;2023-05-24T09:42:43;102371.88;;;14.09;66.40
57990;BME280;58373;51.824;5.564;2023-05-24T09:45:09;102376.91;;;14.12;65.10
57990;BME280;58373;51.824;5.564;2023-05-24T09:47:36;102375.69;;;14.05;64.96
57990;BME280;58373;51.824;5.564;2023-05-24T09:50:02;102379.94;;;14.06;66.02
57990;BME280;58373;51.824;5.564;2023-05-24T09:52:28;102373.97;;;14.04;64.58
57990;BME280;58373;51.824;5.564;2023-05-24T09:54:53;102380.16;;;14.03;64.58
57990;BME280;58373;51.824;5.564;2023-05-24T09:57:19;102381.09;;;14.02;65.68
57990;BME280;58373;51.824;5.564;2023-05-24T09:59:46;102379.63;;;13.98;64.68
57990;BME280;58373;51.824;5.564;2023-05-24T10:02:12;102379.25;;;13.91;64.31
57990;BME280;58373;51.824;5.564;2023-05-24T10:04:38;102380.50;;;13.86;65.47
57990;BME280;58373;51.824;5.564;2023-05-24T10:07:04;102381.59;;;13.83;65.71
57990;BME280;58373;51.824;5.564;2023-05-24T10:09:30;102386.41;;;13.76;65.36
57990;BME280;58373;51.824;5.564;2023-05-24T10:12:00;102386.41;;;13.76;65.74
57990;BME280;58373;51.824;5.564;2023-05-24T10:14:26;102379.72;;;13.72;65.24
57990;BME280;58373;51.824;5.564;2023-05-24T10:16:52;102385.38;;;13.66;64.30
57990;BME280;58373;51.824;5.564;2023-05-24T10:19:18;102379.63;;;13.61;63.92
57990;BME280;58373;51.824;5.564;2023-05-24T10:21:43;102380.59;;;13.60;64.55
57990;BME280;58373;51.824;5.564;2023-05-24T10:24:08;102375.38;;;13.60;63.44
57990;BME280;58373;51.824;5.564;2023-05-24T10:26:35;102378.06;;;13.59;63.36
57990;BME280;58373;51.824;5.564;2023-05-24T10:29:04;102380.78;;;13.57;63.69
57990;BME280;58373;51.824;5.564;2023-05-24T10:31:31;102378.94;;;13.59;64.44
57990;BME280;58373;51.824;5.564;2023-05-24T10:33:57;102372.13;;;13.57;63.39
57990;BME280;58373;51.824;5.564;2023-05-24T10:36:23;102377.66;;;13.52;63.72
57990;BME280;58373;51.824;5.564;2023-05-24T10:38:50;102377.47;;;13.55;64.94
57990;BME280;58373;51.824;5.564;2023-05-24T10:41:16;102378.94;;;13.59;64.28
57990;BME280;58373;51.824;5.564;2023-05-24T10:43:41;102378.50;;;13.65;65.73
57990;BME280;58373;51.824;5.564;2023-05-24T10:46:09;102379.72;;;13.72;65.39
57990;BME280;58373;51.824;5.564;2023-05-24T10:48:35;102375.44;;;13.71;65.01
57990;BME280;58373;51.824;5.564;2023-05-24T10:51:26;102376.16;;;13.73;64.66
57990;BME280;58373;51.824;5.564;2023-05-24T10:53:46;102374.91;;;13.79;64.75
57990;BME280;58373;51.824;5.564;2023-05-24T10:56:13;102378.34;;;13.79;66.09
57990;BME280;58373;51.824;5.564;2023-05-24T11:03:50;102374.09;;;14.02;65.75
57990;BME280;58373;51.824;5.564;2023-05-24T11:06:16;102368.13;;;14.13;65.70
57990;BME280;58373;51.824;5.564;2023-05-24T11:08:41;102365.78;;;14.21;66.08
57990;BME280;58373;51.824;5.564;2023-05-24T11:11:11;102367.72;;;14.30;64.69
57990;BME280;58373;51.824;5.564;2023-05-24T11:13:36;102364.66;;;14.37;65.64
57990;BME280;58373;51.824;5.564;2023-05-24T11:16:02;102363.19;;;14.45;64.46
57990;BME280;58373;51.824;5.564;2023-05-24T11:18:28;102363.81;;;14.49;64.92
57990;BME280;58373;51.824;5.564;2023-05-24T11:20:53;102361.69;;;14.54;63.89
57990;BME280;58373;51.824;5.564;2023-05-24T11:23:20;102371.94;;;14.44;61.08
57990;BME280;58373;51.824;5.564;2023-05-24T11:25:45;102367.41;;;14.35;62.06
57990;BME280;58373;51.824;5.564;2023-05-24T11:28:11;102370.16;;;14.21;61.13
57990;BME280;58373;51.824;5.564;2023-05-24T11:33:12;102370.84;;;14.12;62.10
57990;BME280;58373;51.824;5.564;2023-05-24T11:35:37;102359.59;;;14.11;62.70
57990;BME280;58373;51.824;5.564;2023-05-24T11:38:02;102364.81;;;14.11;62.06
57990;BME280;58373;51.824;5.564;2023-05-24T11:40:28;102369.56;;;14.17;62.60
57990;BME280;58373;51.824;5.564;2023-05-24T11:42:54;102362.47;;;14.19;61.88
57990;BME280;58373;51.824;5.564;2023-05-24T11:45:19;102366.59;;;14.22;61.78
57990;BME280;58373;51.824;5.564;2023-05-24T11:47:47;102364.41;;;14.28;62.27
57990;BME280;58373;51.824;5.564;2023-05-24T11:50:13;102371.16;;;14.31;61.44
57990;BME280;58373;51.824;5.564;2023-05-24T11:52:39;102363.00;;;14.35;60.95
57990;BME280;58373;51.824;5.564;2023-05-24T11:55:05;102360.06;;;14.40;61.43
57990;BME280;58373;51.824;5.564;2023-05-24T11:57:34;102355.00;;;14.50;61.95
57990;BME280;58373;51.824;5.564;2023-05-24T12:00:02;102366.69;;;14.57;61.70
57990;BME280;58373;51.824;5.564;2023-05-24T12:02:28;102359.31;;;14.62;61.98
57990;BME280;58373;51.824;5.564;2023-05-24T12:04:54;102364.78;;;14.59;60.82
57990;BME280;58373;51.824;5.564;2023-05-24T12:07:19;102360.28;;;14.61;61.78
57990;BME280;58373;51.824;5.564;2023-05-24T12:09:44;102356.84;;;14.60;60.09
57990;BME280;58373;51.824;5.564;2023-05-24T12:12:09;102356.00;;;14.60;61.27
57990;BME280;58373;51.824;5.564;2023-05-24T12:14:34;102354.09;;;14.62;60.42
57990;BME280;58373;51.824;5.564;2023-05-24T12:17:00;102355.78;;;14.63;60.03
57990;BME280;58373;51.824;5.564;2023-05-24T12:19:28;102352.44;;;14.61;61.50
57990;BME280;58373;51.824;5.564;2023-05-24T12:21:54;102354.34;;;14.59;60.70
57990;BME280;58373;51.824;5.564;2023-05-24T12:24:21;102353.72;;;14.55;61.17
57990;BME280;58373;51.824;5.564;2023-05-24T12:26:47;102352.56;;;14.59;61.93
57990;BME280;58373;51.824;5.564;2023-05-24T12:29:14;102354.09;;;14.62;60.89
57990;BME280;58373;51.824;5.564;2023-05-24T12:31:39;102353.88;;;14.65;60.84
57990;BME280;58373;51.824;5.564;2023-05-24T12:34:06;102354.38;;;14.70;61.80
57990;BME280;58373;51.824;5.564;2023-05-24T12:36:32;102353.44;;;14.71;60.63
57990;BME280;58373;51.824;5.564;2023-05-24T12:38:59;102353.22;;;14.74;61.99
57990;BME280;58373;51.824;5.564;2023-05-24T12:41:24;102358.19;;;14.77;60.91
57990;BME280;58373;51.824;5.564;2023-05-24T12:43:50;102358.19;;;14.77;60.37
57990;BME280;58373;51.824;5.564;2023-05-24T12:46:15;102347.75;;;14.77;60.64
57990;BME280;58373;51.824;5.564;2023-05-24T12:48:40;102340.63;;;14.79;61.55
57990;BME280;58373;51.824;5.564;2023-05-24T12:51:05;102350.38;;;14.88;60.92
57990;BME280;58373;51.824;5.564;2023-05-24T12:53:32;102347.31;;;14.95;61.48
57990;BME280;58373;51.824;5.564;2023-05-24T12:55:57;102351.09;;;15.02;59.92
57990;BME280;58373;51.824;5.564;2023-05-24T12:58:24;102356.13;;;15.05;60.94
57990;BME280;58373;51.824;5.564;2023-05-24T13:00:50;102339.34;;;15.07;60.15
57990;BME280;58373;51.824;5.564;2023-05-24T13:03:15;102349.22;;;15.04;58.02
57990;BME280;58373;51.824;5.564;2023-05-24T13:05:41;102344.22;;;15.01;59.62